createdAt,value
2019-03-10T00:03:31.830Z,5.37
2019-03-10T00:08:38.626Z,6.63
2019-03-10T00:13:44.898Z,6.40
2019-03-10T00:18:52.163Z,7.57
2019-03-10T00:23:58.938Z,6.03
2019-03-10T00:29:04.158Z,4.97
2019-03-10T00:34:09.309Z,8.03
2019-03-10T00:39:54.596Z,6.10
2019-03-10T00:45:36.152Z,6.07
2019-03-10T00:51:50.213Z,9.90
2019-03-10T00:56:56.201Z,9.80
2019-03-10T01:02:01.727Z,8.53
2019-03-10T01:07:07.601Z,8.33
2019-03-10T01:12:13.022Z,10.50
2019-03-10T01:17:19.624Z,6.20
2019-03-10T01:22:25.080Z,9.83
2019-03-10T01:27:30.238Z,7.43
2019-03-10T01:33:15.494Z,11.17
2019-03-10T01:38:20.640Z,7.30
2019-03-10T01:43:25.836Z,9.93
2019-03-10T01:48:31.375Z,8.87
2019-03-10T01:53:36.531Z,11.30
2019-03-10T01:58:41.677Z,10.33
2019-03-10T02:03:46.941Z,8.90
2019-03-10T02:08:52.087Z,12.30
2019-03-10T02:13:57.607Z,9.23
2019-03-10T02:19:03.104Z,7.43
2019-03-10T02:24:08.692Z,7.53
2019-03-10T02:29:13.833Z,7.40
2019-03-10T02:34:18.988Z,13.90
2019-03-10T02:39:24.462Z,8.63
2019-03-10T02:44:30.308Z,7.00
2019-03-10T02:49:36.542Z,7.13
2019-03-10T02:54:41.707Z,7.27
2019-03-10T02:59:46.973Z,4.83
2019-03-10T03:04:53.105Z,6.77
2019-03-10T03:09:58.238Z,5.73
2019-03-10T03:15:03.388Z,9.70
2019-03-10T03:20:09.658Z,5.43
2019-03-10T03:25:14.807Z,7.80
2019-03-10T03:30:20.372Z,5.87
2019-03-10T03:35:47.090Z,5.53
2019-03-10T03:40:59.332Z,8.37
2019-03-10T03:46:04.978Z,6.67
2019-03-10T03:51:11.673Z,9.63
2019-03-10T03:56:16.834Z,8.23
2019-03-10T04:01:26.212Z,10.83
2019-03-10T04:06:32.878Z,8.40
2019-03-10T04:11:38.021Z,7.00
2019-03-10T04:16:43.397Z,12.13
2019-03-10T04:21:48.549Z,8.13
2019-03-10T04:26:53.705Z,11.97
2019-03-10T04:31:58.852Z,13.90
2019-03-10T04:37:04.334Z,9.73
2019-03-10T04:42:09.496Z,7.30
2019-03-10T04:47:15.056Z,11.93
2019-03-10T04:52:20.520Z,10.13
2019-03-10T04:57:26.420Z,12.27
2019-03-10T05:02:31.609Z,9.07
2019-03-10T05:07:36.791Z,8.70
2019-03-10T05:12:42.236Z,8.00
2019-03-10T05:17:47.401Z,10.57
2019-03-10T05:22:52.583Z,9.33
2019-03-10T05:27:59.675Z,6.00
2019-03-10T05:33:05.907Z,8.70
2019-03-10T05:38:11.091Z,13.93
2019-03-10T05:43:16.357Z,10.50
2019-03-10T05:48:21.827Z,8.13
2019-03-10T05:53:26.997Z,13.67
2019-03-10T05:58:32.433Z,8.50
2019-03-10T06:03:38.059Z,13.13
2019-03-10T06:08:43.778Z,11.73
2019-03-10T06:13:48.940Z,11.53
2019-03-10T06:18:54.111Z,10.67
2019-03-10T06:23:59.644Z,9.13
2019-03-10T06:29:05.874Z,9.60
2019-03-10T06:34:11.038Z,10.90
2019-03-10T06:39:17.669Z,13.80
2019-03-10T06:44:22.846Z,10.53
2019-03-10T06:49:29.092Z,7.87
2019-03-10T06:54:34.625Z,13.87
2019-03-10T06:59:40.488Z,15.47
2019-03-10T07:04:45.696Z,14.37
2019-03-10T07:09:51.280Z,10.33
2019-03-10T07:14:56.846Z,13.50
2019-03-10T07:20:02.401Z,11.87
2019-03-10T07:25:07.707Z,13.37
2019-03-10T07:30:30.879Z,11.27
2019-03-10T07:35:55.415Z,14.07
2019-03-10T07:41:13.506Z,13.23
2019-03-10T07:46:43.610Z,12.67
2019-03-10T07:52:07.781Z,14.23
2019-03-10T07:57:36.458Z,14.50
2019-03-10T08:03:03.964Z,13.70
2019-03-10T08:08:27.046Z,15.13
2019-03-10T08:13:44.988Z,14.20
2019-03-10T08:19:02.950Z,9.43
2019-03-10T08:24:27.549Z,13.10
2019-03-10T08:29:57.870Z,10.07
2019-03-10T08:35:22.253Z,12.40
2019-03-10T08:40:35.735Z,9.47
2019-03-10T08:46:06.515Z,10.27
2019-03-10T08:51:30.982Z,14.93
2019-03-10T08:57:14.867Z,8.20
2019-03-10T09:02:31.449Z,10.60
2019-03-10T09:07:44.502Z,11.43
2019-03-10T09:12:58.518Z,11.77
2019-03-10T09:18:21.366Z,10.77
2019-03-10T09:23:37.882Z,11.83
2019-03-10T09:28:59.893Z,13.37
2019-03-10T09:34:14.374Z,8.40
2019-03-10T09:39:38.526Z,7.67
2019-03-10T09:44:58.617Z,11.73
2019-03-10T09:50:26.448Z,12.27
2019-03-10T09:55:39.519Z,16.40
2019-03-10T10:00:54.679Z,14.93
2019-03-10T10:06:19.006Z,14.83
2019-03-10T10:11:32.621Z,15.53
2019-03-10T10:16:51.705Z,13.80
2019-03-10T10:22:22.864Z,16.77
2019-03-10T10:27:55.037Z,13.73
2019-03-10T10:33:19.226Z,16.40
2019-03-10T10:38:43.399Z,13.60
2019-03-10T10:44:06.177Z,15.93
2019-03-10T10:49:45.649Z,16.63
2019-03-10T10:55:02.509Z,15.97
2019-03-10T11:00:33.433Z,18.00
2019-03-10T11:05:46.612Z,15.83
2019-03-10T11:11:05.298Z,13.03
2019-03-10T11:16:19.463Z,12.27
2019-03-10T11:21:36.503Z,9.37
2019-03-10T11:27:06.833Z,7.10
2019-03-10T11:32:18.725Z,7.07
2019-03-10T11:37:46.837Z,6.13
2019-03-10T11:43:10.099Z,5.22
2019-03-10T11:48:38.708Z,7.93
2019-03-10T11:53:54.083Z,7.27
2019-03-10T11:59:09.745Z,5.87
2019-03-10T12:04:23.763Z,4.67
2019-03-10T12:09:28.945Z,7.40
2019-03-10T12:14:34.572Z,4.92
2019-03-10T12:19:39.837Z,4.03
2019-03-10T12:24:45.164Z,4.07
2019-03-10T12:29:50.321Z,3.67
2019-03-10T12:34:56.773Z,2.92
2019-03-10T12:40:02.372Z,2.40
2019-03-10T12:45:08.650Z,2.50
2019-03-10T12:50:14.240Z,1.37
2019-03-10T12:55:20.587Z,0.60
2019-03-10T13:00:26.496Z,0.88
2019-03-10T13:05:32.164Z,0.88
2019-03-10T13:10:37.622Z,0.88
2019-03-10T13:15:43.843Z,1.10
2019-03-10T13:20:50.102Z,1.45
2019-03-10T13:25:56.187Z,1.50
2019-03-10T13:31:01.554Z,2.75
2019-03-10T13:36:07.247Z,2.40
2019-03-10T13:41:12.566Z,2.10
2019-03-10T13:46:18.210Z,3.37
2019-03-10T13:51:23.476Z,3.52
2019-03-10T13:56:28.715Z,2.20
2019-03-10T14:01:34.062Z,3.47
2019-03-10T14:06:39.731Z,6.30
2019-03-10T14:11:45.265Z,3.95
2019-03-10T14:16:50.949Z,2.85
2019-03-10T14:21:57.079Z,3.10
2019-03-10T14:27:02.641Z,2.77
2019-03-10T14:32:08.219Z,3.02
2019-03-10T14:37:14.078Z,1.55
2019-03-10T14:42:19.254Z,1.27
2019-03-10T14:47:24.890Z,1.30
2019-03-10T14:52:31.044Z,3.53
2019-03-10T14:57:36.505Z,3.47
2019-03-10T15:02:42.347Z,3.17
2019-03-10T15:07:48.813Z,2.60
2019-03-10T15:12:55.263Z,4.62
2019-03-10T15:18:02.832Z,2.95
2019-03-10T15:23:07.461Z,3.70
2019-03-10T15:28:12.726Z,5.95
2019-03-10T15:33:18.306Z,2.40
2019-03-10T15:38:23.548Z,3.35
2019-03-10T15:43:28.804Z,2.47
2019-03-10T15:48:35.056Z,3.00
2019-03-10T15:53:40.694Z,2.93
2019-03-10T15:58:46.286Z,3.83
2019-03-10T16:03:51.705Z,3.95
2019-03-10T16:08:56.961Z,2.42
2019-03-10T16:14:04.145Z,3.50
2019-03-10T16:19:09.767Z,5.42
2019-03-10T16:24:15.345Z,4.17
2019-03-10T16:29:20.714Z,4.37
2019-03-10T16:34:26.044Z,4.42
2019-03-10T16:39:31.306Z,5.97
2019-03-10T16:44:36.975Z,4.30
2019-03-10T16:49:42.471Z,2.75
2019-03-10T16:54:47.647Z,3.30
2019-03-10T16:59:52.890Z,6.17
2019-03-10T17:04:58.181Z,2.87
2019-03-10T17:10:03.374Z,3.83
2019-03-10T17:15:10.607Z,3.12
2019-03-10T17:20:16.329Z,1.47
2019-03-10T17:25:21.582Z,1.25
2019-03-10T17:30:28.960Z,1.92
2019-03-10T17:35:34.215Z,3.40
2019-03-10T17:40:39.482Z,0.80
2019-03-10T17:45:44.728Z,1.27
2019-03-10T17:50:50.157Z,0.80
2019-03-10T17:55:55.723Z,2.10
2019-03-10T18:01:02.530Z,2.45
2019-03-10T18:06:07.809Z,2.45
2019-03-10T18:11:13.060Z,2.45
2019-03-10T18:16:19.221Z,3.23
2019-03-10T18:21:24.470Z,1.77
2019-03-10T18:26:30.323Z,2.67
2019-03-10T18:31:35.649Z,1.52
2019-03-10T18:36:40.823Z,1.53
2019-03-10T18:41:46.124Z,1.42
2019-03-10T18:46:51.291Z,1.33
2019-03-10T18:51:56.856Z,0.73
2019-03-10T18:57:02.440Z,2.57
2019-03-10T19:02:08.724Z,2.70
2019-03-10T19:07:13.913Z,1.47
2019-03-10T19:12:19.079Z,1.60
2019-03-10T19:17:25.067Z,2.20
2019-03-10T19:22:30.400Z,1.02
2019-03-10T19:27:36.010Z,0.70
2019-03-10T19:32:43.395Z,1.00
2019-03-10T19:37:48.628Z,2.40
2019-03-10T19:42:56.806Z,0.70
2019-03-10T19:48:02.533Z,0.70
2019-03-10T19:53:08.035Z,1.33
2019-03-10T19:58:14.231Z,1.43
2019-03-10T20:03:19.437Z,0.87
2019-03-10T20:08:24.631Z,0.50
2019-03-10T20:13:30.185Z,0.50
2019-03-10T20:18:36.076Z,0.60
2019-03-10T20:23:41.591Z,0.50
2019-03-10T20:28:46.757Z,0.70
2019-03-10T20:33:52.607Z,2.30
2019-03-10T20:38:58.511Z,0.80
2019-03-10T20:44:03.700Z,0.70
2019-03-10T20:49:09.280Z,0.80
2019-03-10T20:54:14.582Z,0.70
2019-03-10T20:59:19.757Z,0.80
2019-03-10T21:04:25.360Z,0.90
2019-03-10T21:09:30.901Z,0.90
2019-03-10T21:14:36.068Z,0.90
2019-03-10T21:19:41.231Z,1.10
2019-03-10T21:24:46.424Z,1.10
2019-03-10T21:29:51.588Z,1.20
2019-03-10T21:34:56.926Z,1.40
2019-03-10T21:40:02.408Z,1.10
2019-03-10T21:45:09.409Z,0.93
2019-03-10T21:50:14.860Z,1.60
2019-03-10T21:55:20.023Z,1.00
2019-03-10T22:00:25.512Z,1.10
2019-03-10T22:05:31.068Z,1.10
2019-03-10T22:10:36.701Z,0.93
2019-03-10T22:15:42.522Z,1.20
2019-03-10T22:20:47.704Z,1.23
2019-03-10T22:25:53.225Z,1.00
2019-03-10T22:30:58.739Z,1.00
2019-03-10T22:36:05.397Z,0.80
2019-03-10T22:41:10.574Z,1.40
2019-03-10T22:46:16.058Z,1.63
2019-03-10T22:51:21.227Z,1.13
2019-03-10T22:56:26.586Z,0.97
2019-03-10T23:01:31.755Z,1.13
2019-03-10T23:06:36.946Z,1.27
2019-03-10T23:11:42.476Z,1.13
2019-03-10T23:16:47.634Z,1.10
2019-03-10T23:21:53.096Z,1.33
2019-03-10T23:26:58.390Z,1.00
2019-03-10T23:32:03.564Z,1.30
2019-03-10T23:37:09.081Z,1.20
2019-03-10T23:42:14.261Z,1.03
2019-03-10T23:47:20.389Z,1.97
2019-03-10T23:52:25.963Z,2.30
2019-03-10T23:57:31.125Z,1.60
